createdAt,value
2024-01-19T00:00:00.738Z,39.49
2024-01-19T00:01:00.780Z,39.55
2024-01-19T00:02:00.718Z,39.61
2024-01-19T00:03:00.737Z,39.57
2024-01-19T00:04:00.810Z,39.50
2024-01-19T00:05:00.756Z,39.47
2024-01-19T00:06:00.804Z,39.44
2024-01-19T00:07:00.760Z,39.37
2024-01-19T00:08:00.803Z,39.41
2024-01-19T00:09:00.741Z,39.47
2024-01-19T00:10:00.748Z,39.51
2024-01-19T00:11:00.771Z,39.53
2024-01-19T00:12:00.763Z,39.47
2024-01-19T00:13:00.785Z,39.44
2024-01-19T00:14:00.738Z,39.41
2024-01-19T00:15:00.770Z,39.43
2024-01-19T00:16:00.785Z,39.39
2024-01-19T00:17:00.773Z,39.37
2024-01-19T00:18:00.905Z,39.36
2024-01-19T00:19:00.791Z,39.39
2024-01-19T00:20:00.792Z,39.34
2024-01-19T00:21:00.787Z,39.42
2024-01-19T00:22:00.760Z,39.45
2024-01-19T00:23:00.772Z,39.42
2024-01-19T00:24:00.767Z,39.39
2024-01-19T00:25:00.768Z,39.34
2024-01-19T00:26:00.778Z,39.32
2024-01-19T00:27:00.836Z,39.41
2024-01-19T00:28:00.781Z,39.42
2024-01-19T00:29:00.783Z,39.44
2024-01-19T00:30:00.841Z,39.45
2024-01-19T00:31:00.781Z,39.49
2024-01-19T00:32:00.787Z,39.48
2024-01-19T00:33:00.819Z,39.49
2024-01-19T00:34:00.766Z,39.49
2024-01-19T00:35:00.849Z,39.47
2024-01-19T00:36:00.850Z,39.43
2024-01-19T00:37:00.824Z,39.47
2024-01-19T00:38:00.799Z,39.46
2024-01-19T00:39:00.906Z,39.45
2024-01-19T00:40:00.950Z,39.43
2024-01-19T00:41:01.038Z,39.44
2024-01-19T00:42:01.118Z,39.45
2024-01-19T00:43:01.175Z,39.44
2024-01-19T00:44:01.214Z,39.42
2024-01-19T00:45:01.373Z,39.39
2024-01-19T00:46:01.360Z,39.37
2024-01-19T00:47:01.413Z,39.30
2024-01-19T00:48:01.615Z,39.22
2024-01-19T00:49:01.665Z,39.16
2024-01-19T00:50:01.693Z,39.18
2024-01-19T00:51:01.791Z,39.19
2024-01-19T00:52:01.747Z,39.15
2024-01-19T00:53:01.824Z,39.12
2024-01-19T00:54:01.909Z,39.07
2024-01-19T00:55:01.927Z,38.99
2024-01-19T00:56:01.992Z,38.96
2024-01-19T00:57:02.050Z,38.95
2024-01-19T00:58:02.146Z,38.95
2024-01-19T00:59:02.207Z,38.92
2024-01-19T01:00:02.345Z,38.93
2024-01-19T01:01:02.332Z,38.91
2024-01-19T01:02:02.372Z,38.90
2024-01-19T01:03:02.511Z,38.91
2024-01-19T01:04:02.527Z,38.93
2024-01-19T01:05:02.612Z,38.93
2024-01-19T01:06:02.800Z,38.91
2024-01-19T01:07:02.715Z,38.92
2024-01-19T01:08:02.752Z,38.95
2024-01-19T01:09:02.873Z,38.99
2024-01-19T01:10:02.929Z,38.96
2024-01-19T01:11:03.003Z,38.88
2024-01-19T01:12:03.035Z,38.88
2024-01-19T01:13:03.094Z,38.82
2024-01-19T01:14:03.186Z,38.77
2024-01-19T01:15:03.325Z,38.83
2024-01-19T01:16:03.347Z,38.85
2024-01-19T01:17:03.374Z,38.88
2024-01-19T01:18:03.542Z,38.87
2024-01-19T01:19:03.572Z,38.87
2024-01-19T01:20:03.605Z,38.86
2024-01-19T01:21:03.679Z,38.84
2024-01-19T01:22:03.750Z,38.80
2024-01-19T01:23:03.801Z,38.82
2024-01-19T01:24:03.937Z,38.80
2024-01-19T01:25:03.926Z,38.63
2024-01-19T01:26:04.050Z,38.61
2024-01-19T01:27:04.065Z,38.60
2024-01-19T01:28:04.150Z,38.52
2024-01-19T01:29:04.188Z,38.54
2024-01-19T01:30:04.281Z,38.59
2024-01-19T01:31:04.320Z,38.57
2024-01-19T01:32:04.391Z,38.55
2024-01-19T01:33:04.612Z,38.56
2024-01-19T01:34:04.587Z,38.53
2024-01-19T01:35:04.620Z,38.55
2024-01-19T01:36:04.768Z,38.50
2024-01-19T01:37:04.750Z,38.52
2024-01-19T01:38:04.817Z,38.53
2024-01-19T01:39:04.884Z,38.49
2024-01-19T01:40:04.979Z,38.47
2024-01-19T01:41:05.061Z,38.47
2024-01-19T01:42:05.095Z,38.52
2024-01-19T01:43:05.206Z,38.50
2024-01-19T01:44:05.247Z,38.55
2024-01-19T01:45:05.405Z,38.53
2024-01-19T01:46:05.393Z,38.44
2024-01-19T01:47:05.491Z,38.48
2024-01-19T01:48:05.733Z,38.42
2024-01-19T01:49:05.736Z,38.43
2024-01-19T01:50:05.688Z,38.34
2024-01-19T01:51:05.866Z,38.30
2024-01-19T01:52:05.832Z,38.26
2024-01-19T01:53:05.905Z,38.23
2024-01-19T01:54:06.018Z,38.20
2024-01-19T01:55:06.043Z,38.18
2024-01-19T01:56:06.127Z,38.22
2024-01-19T01:57:06.187Z,38.20
2024-01-19T01:58:06.261Z,38.20
2024-01-19T01:59:06.341Z,38.21
2024-01-19T02:00:06.384Z,38.15
2024-01-19T02:01:06.502Z,38.14
2024-01-19T02:02:06.534Z,38.15
2024-01-19T02:03:06.592Z,38.22
2024-01-19T02:04:06.653Z,38.24
2024-01-19T02:05:06.788Z,38.19
2024-01-19T02:06:06.904Z,38.15
2024-01-19T02:07:07.120Z,38.09
2024-01-19T02:08:07.058Z,38.08
2024-01-19T02:09:07.035Z,38.08
2024-01-19T02:10:07.084Z,38.05
2024-01-19T02:11:07.163Z,38.08
2024-01-19T02:12:07.230Z,38.09
2024-01-19T02:13:07.295Z,38.03
2024-01-19T02:14:07.392Z,38.02
2024-01-19T02:15:07.457Z,37.97
2024-01-19T02:16:07.558Z,37.93
2024-01-19T02:17:07.597Z,37.93
2024-01-19T02:18:07.797Z,37.92
2024-01-19T02:19:07.807Z,37.92
2024-01-19T02:20:07.790Z,37.80
2024-01-19T02:21:07.866Z,37.73
2024-01-19T02:22:07.945Z,37.70
2024-01-19T02:23:08.031Z,37.76
2024-01-19T02:24:08.090Z,37.75
2024-01-19T02:25:08.167Z,37.82
2024-01-19T02:26:08.272Z,37.86
2024-01-19T02:27:08.300Z,37.87
2024-01-19T02:28:08.364Z,37.85
2024-01-19T02:29:09.001Z,37.85
2024-01-19T02:30:08.506Z,37.79
2024-01-19T02:31:08.626Z,37.71
2024-01-19T02:32:08.690Z,37.69
2024-01-19T02:33:08.781Z,37.75
2024-01-19T02:34:08.792Z,37.80
2024-01-19T02:35:08.904Z,37.78
2024-01-19T02:36:08.961Z,37.81
2024-01-19T02:37:09.032Z,37.76
2024-01-19T02:38:09.068Z,37.80
2024-01-19T02:39:09.134Z,37.82
2024-01-19T02:40:09.235Z,37.72
2024-01-19T02:41:09.279Z,37.68
2024-01-19T02:42:09.377Z,37.61
2024-01-19T02:43:09.457Z,37.64
2024-01-19T02:44:09.481Z,37.62
2024-01-19T02:45:09.580Z,37.64
2024-01-19T02:46:09.651Z,37.69
2024-01-19T02:47:09.713Z,37.68
2024-01-19T02:48:09.812Z,37.66
2024-01-19T02:49:09.933Z,37.64
2024-01-19T02:50:09.927Z,37.68
2024-01-19T02:51:09.984Z,37.67
2024-01-19T02:52:10.018Z,37.63
2024-01-19T02:53:10.063Z,37.63
2024-01-19T02:54:10.118Z,37.62
2024-01-19T02:55:10.209Z,37.64
2024-01-19T02:56:10.258Z,37.65
2024-01-19T02:57:10.313Z,37.61
2024-01-19T02:58:10.380Z,37.56
2024-01-19T02:59:10.448Z,37.52
2024-01-19T03:00:10.497Z,37.51
2024-01-19T03:01:10.622Z,37.48
2024-01-19T03:02:10.722Z,37.48
2024-01-19T03:03:10.775Z,37.49
2024-01-19T03:04:10.765Z,37.47
2024-01-19T03:05:10.840Z,37.43
2024-01-19T03:06:11.057Z,37.46
2024-01-19T03:07:10.898Z,37.45
2024-01-19T03:08:10.920Z,37.46
2024-01-19T03:09:10.962Z,37.42
2024-01-19T03:10:11.016Z,37.38
2024-01-19T03:11:11.088Z,37.35
2024-01-19T03:12:11.117Z,37.32
2024-01-19T03:13:11.187Z,37.36
2024-01-19T03:14:11.276Z,37.25
2024-01-19T03:15:11.324Z,37.21
2024-01-19T03:16:11.383Z,37.22
2024-01-19T03:17:11.453Z,37.23
2024-01-19T03:18:11.672Z,37.21
2024-01-19T03:19:11.611Z,37.15
2024-01-19T03:20:11.620Z,37.07
2024-01-19T03:21:11.628Z,37.04
2024-01-19T03:22:11.723Z,37.05
2024-01-19T03:23:11.729Z,37.09
2024-01-19T03:24:11.824Z,37.08
2024-01-19T03:25:11.906Z,37.12
2024-01-19T03:26:11.981Z,37.11
2024-01-19T03:27:11.997Z,37.10
2024-01-19T03:28:12.039Z,37.04
2024-01-19T03:29:12.069Z,37.04
2024-01-19T03:30:12.112Z,37.00
2024-01-19T03:31:12.165Z,36.97
2024-01-19T03:32:12.186Z,36.95
2024-01-19T03:33:12.349Z,36.98
2024-01-19T03:34:12.359Z,37.02
2024-01-19T03:35:12.349Z,37.07
2024-01-19T03:36:12.507Z,37.08
2024-01-19T03:37:12.465Z,37.11
2024-01-19T03:38:12.519Z,37.10
2024-01-19T03:39:12.559Z,37.10
2024-01-19T03:40:12.620Z,37.11
2024-01-19T03:41:12.679Z,37.11
2024-01-19T03:42:12.731Z,37.13
2024-01-19T03:43:12.824Z,37.11
2024-01-19T03:44:12.856Z,37.14
2024-01-19T03:45:12.932Z,37.16
2024-01-19T03:46:13.004Z,37.17
2024-01-19T03:47:13.051Z,37.19
2024-01-19T03:48:13.141Z,37.18
2024-01-19T03:49:13.138Z,37.16
2024-01-19T03:50:13.222Z,37.14
2024-01-19T03:51:13.269Z,37.08
2024-01-19T03:52:13.337Z,36.99
2024-01-19T03:53:13.418Z,37.02
2024-01-19T03:54:13.466Z,37.08
2024-01-19T03:55:14.133Z,37.09
2024-01-19T03:56:13.608Z,37.07
2024-01-19T03:57:13.663Z,37.07
2024-01-19T03:58:13.713Z,37.10
2024-01-19T03:59:13.724Z,37.08
2024-01-19T04:00:13.833Z,37.01
2024-01-19T04:01:13.912Z,36.94
2024-01-19T04:02:13.956Z,36.98
2024-01-19T04:03:14.144Z,36.99
2024-01-19T04:04:14.073Z,36.99
2024-01-19T04:05:14.083Z,36.97
2024-01-19T04:06:14.266Z,36.92
2024-01-19T04:07:14.277Z,36.95
2024-01-19T04:08:14.186Z,36.93
2024-01-19T04:09:14.212Z,36.94
2024-01-19T04:10:14.251Z,36.96
2024-01-19T04:11:14.324Z,36.97
2024-01-19T04:12:14.320Z,36.92
2024-01-19T04:13:14.380Z,36.90
2024-01-19T04:14:14.423Z,36.90
2024-01-19T04:15:14.451Z,36.85
2024-01-19T04:16:14.524Z,36.82
2024-01-19T04:17:14.516Z,36.78
2024-01-19T04:18:14.731Z,36.77
2024-01-19T04:19:14.700Z,36.67
2024-01-19T04:20:14.663Z,36.71
2024-01-19T04:21:14.686Z,36.78
2024-01-19T04:22:14.753Z,36.75
2024-01-19T04:23:14.817Z,36.78
2024-01-19T04:24:14.850Z,36.73
2024-01-19T04:25:14.974Z,36.62
2024-01-19T04:26:14.988Z,36.58
2024-01-19T04:27:15.064Z,36.62
2024-01-19T04:28:15.092Z,36.63
2024-01-19T04:29:15.172Z,36.61
2024-01-19T04:30:15.232Z,36.60
2024-01-19T04:31:15.263Z,36.66
2024-01-19T04:32:15.298Z,36.73
2024-01-19T04:33:15.466Z,36.66
2024-01-19T04:34:22.738Z,36.69
2024-01-19T04:35:22.758Z,36.61
2024-01-19T04:36:22.708Z,36.56
2024-01-19T04:37:22.738Z,36.58
2024-01-19T04:38:22.738Z,36.60
2024-01-19T04:39:22.744Z,36.58
2024-01-19T04:40:22.719Z,36.56
2024-01-19T04:41:22.758Z,36.58
2024-01-19T04:42:22.738Z,36.56
2024-01-19T04:43:22.728Z,36.54
2024-01-19T04:44:22.802Z,36.58
2024-01-19T04:45:22.746Z,36.52
2024-01-19T04:46:22.735Z,36.54
2024-01-19T04:47:22.917Z,36.48
2024-01-19T04:48:22.810Z,36.47
2024-01-19T04:49:22.751Z,36.43
2024-01-19T04:50:22.774Z,36.54
2024-01-19T04:51:22.757Z,36.54
2024-01-19T04:52:22.710Z,36.54
2024-01-19T04:53:22.756Z,36.53
2024-01-19T04:54:22.730Z,36.52
2024-01-19T04:55:22.765Z,36.48
2024-01-19T04:56:22.751Z,36.44
2024-01-19T04:57:22.754Z,36.47
2024-01-19T04:58:22.735Z,36.47
2024-01-19T04:59:22.788Z,36.43
2024-01-19T05:00:22.760Z,36.41
2024-01-19T05:01:22.762Z,36.40
2024-01-19T05:02:22.763Z,36.41
2024-01-19T05:03:22.766Z,36.44
2024-01-19T05:04:22.806Z,36.38
2024-01-19T05:05:22.933Z,36.35
2024-01-19T05:06:22.984Z,36.22
2024-01-19T05:07:22.982Z,36.20
2024-01-19T05:08:23.131Z,36.22
2024-01-19T05:09:23.130Z,36.20
2024-01-19T05:10:23.173Z,36.28
2024-01-19T05:11:23.260Z,36.35
2024-01-19T05:12:23.256Z,36.34
2024-01-19T05:13:23.373Z,36.34
2024-01-19T05:14:23.467Z,36.28
2024-01-19T05:15:23.830Z,36.21
2024-01-19T05:16:23.593Z,36.22
2024-01-19T05:17:23.693Z,36.15
2024-01-19T05:18:23.777Z,36.08
2024-01-19T05:19:23.792Z,36.01
2024-01-19T05:20:23.863Z,36.00
2024-01-19T05:21:23.908Z,36.02
2024-01-19T05:22:23.968Z,36.09
2024-01-19T05:23:24.071Z,36.14
2024-01-19T05:24:24.122Z,36.09
2024-01-19T05:25:24.190Z,36.06
2024-01-19T05:26:24.253Z,36.02
2024-01-19T05:27:24.289Z,35.99
2024-01-19T05:28:24.363Z,36.00
2024-01-19T05:29:24.437Z,36.00
2024-01-19T05:30:24.484Z,36.02
2024-01-19T05:31:24.613Z,36.01
2024-01-19T05:32:24.746Z,36.01
2024-01-19T05:33:24.823Z,35.99
2024-01-19T05:34:24.864Z,35.96
2024-01-19T05:35:25.014Z,35.95
2024-01-19T05:36:24.953Z,35.97
2024-01-19T05:37:24.991Z,35.95
2024-01-19T05:38:25.073Z,35.99
2024-01-19T05:39:25.146Z,36.04
2024-01-19T05:40:25.177Z,36.12
2024-01-19T05:41:25.322Z,36.15
2024-01-19T05:42:25.266Z,36.17
2024-01-19T05:43:25.349Z,36.20
2024-01-19T05:44:25.367Z,36.19
2024-01-19T05:45:25.415Z,36.20
2024-01-19T05:46:25.490Z,36.26
2024-01-19T05:47:25.848Z,36.27
2024-01-19T05:48:25.795Z,36.31
2024-01-19T05:49:25.698Z,36.33
2024-01-19T05:50:25.758Z,36.31
2024-01-19T05:51:25.821Z,36.33
2024-01-19T05:52:25.832Z,36.35
2024-01-19T05:53:25.989Z,36.34
2024-01-19T05:54:25.976Z,36.36
2024-01-19T05:55:25.975Z,36.34
2024-01-19T05:56:26.089Z,36.33
2024-01-19T05:57:26.146Z,36.32
2024-01-19T05:58:26.160Z,36.34
2024-01-19T05:59:26.277Z,36.36
2024-01-19T06:00:26.305Z,36.35
2024-01-19T06:01:26.340Z,36.36
2024-01-19T06:02:26.508Z,36.36
2024-01-19T06:03:26.471Z,36.34
2024-01-19T06:04:26.506Z,36.34
2024-01-19T06:05:26.680Z,36.34
2024-01-19T06:06:26.776Z,36.33
2024-01-19T06:07:26.752Z,36.33
2024-01-19T06:08:26.843Z,36.34
2024-01-19T06:09:26.846Z,36.33
2024-01-19T06:10:26.950Z,36.32
2024-01-19T06:11:27.036Z,36.33
2024-01-19T06:12:27.057Z,36.33
2024-01-19T06:13:27.136Z,36.32
2024-01-19T06:14:27.221Z,36.33
2024-01-19T06:15:27.294Z,36.35
2024-01-19T06:16:27.330Z,36.35
2024-01-19T06:17:27.482Z,36.34
2024-01-19T06:18:27.620Z,36.33
2024-01-19T06:19:27.585Z,36.35
2024-01-19T06:20:27.689Z,36.35
2024-01-19T06:21:27.720Z,36.34
2024-01-19T06:22:27.781Z,36.36
2024-01-19T06:23:27.868Z,36.33
2024-01-19T06:24:27.918Z,36.34
2024-01-19T06:25:27.969Z,36.31
2024-01-19T06:26:28.072Z,36.31
2024-01-19T06:27:28.122Z,36.29
2024-01-19T06:28:28.208Z,36.28
2024-01-19T06:29:28.291Z,36.30
2024-01-19T06:30:28.366Z,36.30
2024-01-19T06:31:28.409Z,36.34
2024-01-19T06:32:28.609Z,36.36
2024-01-19T06:33:28.758Z,36.33
2024-01-19T06:34:28.612Z,36.32
2024-01-19T06:35:28.770Z,36.33
2024-01-19T06:36:28.942Z,36.38
2024-01-19T06:37:28.851Z,36.36
2024-01-19T06:38:28.933Z,36.37
2024-01-19T06:39:29.006Z,36.38
2024-01-19T06:40:29.070Z,36.42
2024-01-19T06:41:29.191Z,36.48
2024-01-19T06:42:29.225Z,36.55
2024-01-19T06:43:29.303Z,36.71
2024-01-19T06:44:29.353Z,36.86
2024-01-19T06:45:29.433Z,36.98
2024-01-19T06:46:29.488Z,36.93
2024-01-19T06:47:29.610Z,36.86
2024-01-19T06:48:29.672Z,36.86
2024-01-19T06:49:29.719Z,36.87
2024-01-19T06:50:29.782Z,36.95
2024-01-19T06:51:29.899Z,36.97
2024-01-19T06:52:29.923Z,37.13
2024-01-19T06:53:30.064Z,37.28
2024-01-19T06:54:30.073Z,37.40
2024-01-19T06:55:30.112Z,37.53
2024-01-19T06:56:30.199Z,37.65
2024-01-19T06:57:30.237Z,37.73
2024-01-19T06:58:30.308Z,37.97
2024-01-19T06:59:30.378Z,38.08
2024-01-19T07:00:30.396Z,39.19
2024-01-19T07:01:30.505Z,38.64
2024-01-19T07:02:30.533Z,38.81
2024-01-19T07:03:30.595Z,38.83
2024-01-19T07:04:30.590Z,38.97
2024-01-19T07:05:30.637Z,39.07
2024-01-19T07:06:30.660Z,39.17
2024-01-19T07:07:30.634Z,39.28
2024-01-19T07:08:30.675Z,39.47
2024-01-19T07:09:30.665Z,39.64
2024-01-19T07:10:30.667Z,39.81
2024-01-19T07:11:30.760Z,39.91
2024-01-19T07:12:30.695Z,40.20
2024-01-19T07:13:30.724Z,40.23
2024-01-19T07:14:30.728Z,40.39
2024-01-19T07:15:30.702Z,40.47
2024-01-19T07:16:30.772Z,40.72
2024-01-19T07:17:30.886Z,40.79
2024-01-19T07:18:30.949Z,40.96
2024-01-19T07:19:30.893Z,41.06
2024-01-19T07:20:30.983Z,41.08
2024-01-19T07:21:31.050Z,41.10
2024-01-19T07:22:31.107Z,41.21
2024-01-19T07:23:31.982Z,41.35
2024-01-19T07:24:31.268Z,41.38
2024-01-19T07:25:31.308Z,41.59
2024-01-19T07:26:31.414Z,41.48
2024-01-19T07:27:31.432Z,41.63
2024-01-19T07:28:31.499Z,41.50
2024-01-19T07:29:31.654Z,41.54
2024-01-19T07:30:31.619Z,41.50
2024-01-19T07:31:31.712Z,41.56
2024-01-19T07:33:33.364Z,41.64
2024-01-19T07:34:32.020Z,41.70
2024-01-19T07:35:32.032Z,41.84
2024-01-19T07:36:32.016Z,41.85
2024-01-19T07:37:32.017Z,41.93
2024-01-19T07:38:32.094Z,42.02
2024-01-19T07:39:32.094Z,42.10
2024-01-19T07:40:32.130Z,42.16
2024-01-19T07:41:32.201Z,42.24
2024-01-19T07:42:32.196Z,42.24
2024-01-19T07:43:32.242Z,42.32
2024-01-19T07:44:32.350Z,42.42
2024-01-19T07:45:32.314Z,42.71
2024-01-19T07:46:32.391Z,42.62
2024-01-19T07:47:32.456Z,42.44
2024-01-19T07:48:32.492Z,42.95
2024-01-19T07:49:32.519Z,42.80
2024-01-19T07:50:32.504Z,42.80
2024-01-19T07:51:32.548Z,42.96
2024-01-19T07:52:32.576Z,42.86
2024-01-19T07:53:32.622Z,43.17
2024-01-19T07:54:32.632Z,43.11
2024-01-19T07:55:32.650Z,43.16
2024-01-19T07:56:32.674Z,43.33
2024-01-19T07:57:32.677Z,43.48
2024-01-19T07:58:32.747Z,43.81
2024-01-19T07:59:32.756Z,43.57
2024-01-19T08:00:32.766Z,43.68
2024-01-19T08:01:32.765Z,43.67
2024-01-19T08:02:32.803Z,43.82
2024-01-19T08:03:32.845Z,43.86
2024-01-19T08:04:32.807Z,43.91
2024-01-19T08:05:32.880Z,43.90
2024-01-19T08:06:32.905Z,43.93
2024-01-19T08:07:32.845Z,43.96
2024-01-19T08:08:32.905Z,43.92
2024-01-19T08:09:32.865Z,43.93
2024-01-19T08:10:32.916Z,44.10
2024-01-19T08:11:32.969Z,44.04
2024-01-19T08:12:32.924Z,44.29
2024-01-19T08:13:32.933Z,44.33
2024-01-19T08:14:33.008Z,44.47
2024-01-19T08:15:32.978Z,44.60
2024-01-19T08:16:33.021Z,44.51
2024-01-19T08:17:33.098Z,44.52
2024-01-19T08:18:34.930Z,44.77
2024-01-19T08:19:33.105Z,44.91
2024-01-19T08:20:33.152Z,45.95
2024-01-19T08:21:33.105Z,45.24
2024-01-19T08:22:33.120Z,45.35
2024-01-19T08:23:33.166Z,45.01
2024-01-19T08:24:33.113Z,44.98
2024-01-19T08:25:33.128Z,45.12
2024-01-19T08:26:33.144Z,45.22
2024-01-19T08:27:33.154Z,45.19
2024-01-19T08:28:33.104Z,45.33
2024-01-19T08:29:33.124Z,45.31
2024-01-19T08:30:33.135Z,45.27
2024-01-19T08:31:33.154Z,45.40
2024-01-19T08:32:33.458Z,45.33
2024-01-19T08:33:33.254Z,45.45
2024-01-19T08:34:33.168Z,45.59
2024-01-19T08:35:33.249Z,45.56
2024-01-19T08:36:33.141Z,45.54
2024-01-19T08:37:33.135Z,45.77
2024-01-19T08:38:33.185Z,45.85
2024-01-19T08:39:33.166Z,45.92
2024-01-19T08:40:33.116Z,46.42
2024-01-19T08:41:33.181Z,46.09
2024-01-19T08:42:33.146Z,45.85
2024-01-19T08:43:33.152Z,45.77
2024-01-19T08:44:33.175Z,46.04
2024-01-19T08:45:33.198Z,45.81
2024-01-19T08:46:33.144Z,45.32
2024-01-19T08:47:33.238Z,45.47
2024-01-19T08:48:33.260Z,45.46
2024-01-19T08:49:33.181Z,45.52
2024-01-19T08:50:33.164Z,46.33
2024-01-19T08:51:33.187Z,45.79
2024-01-19T08:52:33.193Z,45.19
2024-01-19T08:53:33.263Z,45.21
2024-01-19T08:54:33.255Z,40.69
2024-01-19T08:55:33.267Z,39.89
2024-01-19T08:56:34.062Z,37.64
2024-01-19T08:57:33.405Z,36.09
2024-01-19T08:58:33.272Z,35.41
2024-01-19T08:59:33.458Z,35.00
2024-01-19T09:00:33.317Z,34.18
2024-01-19T09:01:33.288Z,33.26
2024-01-19T09:02:33.302Z,33.24
2024-01-19T09:03:33.378Z,32.94
2024-01-19T09:04:33.357Z,32.59
2024-01-19T09:05:33.784Z,32.47
2024-01-19T09:06:34.177Z,32.97
2024-01-19T09:07:33.716Z,36.26
2024-01-19T09:08:33.331Z,37.17
2024-01-19T09:09:33.302Z,38.34
2024-01-19T09:10:33.276Z,38.99
2024-01-19T09:11:33.367Z,40.04
2024-01-19T09:12:33.284Z,39.46
2024-01-19T09:13:33.285Z,39.28
2024-01-19T09:14:33.317Z,39.32
2024-01-19T09:15:33.292Z,39.29
2024-01-19T09:16:33.306Z,39.23
2024-01-19T09:17:33.408Z,39.20
2024-01-19T09:18:33.415Z,39.23
2024-01-19T09:19:34.810Z,39.31
2024-01-19T09:20:33.369Z,39.35
2024-01-19T09:21:33.350Z,39.42
2024-01-19T09:22:33.326Z,39.43
2024-01-19T09:23:33.325Z,39.38
2024-01-19T09:24:33.345Z,39.48
2024-01-19T09:25:33.320Z,39.59
2024-01-19T09:26:33.403Z,39.67
2024-01-19T09:27:33.345Z,39.78
2024-01-19T09:28:33.345Z,39.90
2024-01-19T09:29:33.440Z,39.95
2024-01-19T09:30:34.878Z,40.02
2024-01-19T09:31:33.471Z,40.11
2024-01-19T09:32:33.476Z,40.30
2024-01-19T09:33:33.517Z,40.45
2024-01-19T09:34:33.435Z,40.21
2024-01-19T09:35:33.418Z,40.16
2024-01-19T09:36:33.362Z,40.47
2024-01-19T09:37:33.394Z,40.52
2024-01-19T09:38:33.454Z,40.68
2024-01-19T09:39:33.413Z,40.74
2024-01-19T09:40:33.424Z,40.65
2024-01-19T09:41:33.492Z,40.75
2024-01-19T09:42:33.402Z,40.85
2024-01-19T09:43:33.413Z,40.88
2024-01-19T09:44:33.416Z,41.18
2024-01-19T09:45:33.408Z,41.16
2024-01-19T09:46:33.453Z,41.16
2024-01-19T09:47:33.443Z,41.35
2024-01-19T09:48:33.478Z,41.48
2024-01-19T09:49:33.565Z,41.47
2024-01-19T09:50:33.503Z,41.77
2024-01-19T09:51:33.430Z,42.06
2024-01-19T09:52:33.430Z,42.15
2024-01-19T09:53:33.663Z,42.82
2024-01-19T09:54:33.427Z,43.19
2024-01-19T09:55:33.426Z,43.83
2024-01-19T09:56:33.464Z,43.43
2024-01-19T09:57:33.422Z,43.82
2024-01-19T09:58:33.438Z,43.50
2024-01-19T09:59:33.482Z,43.34
2024-01-19T10:00:33.436Z,43.35
2024-01-19T10:01:33.429Z,44.04
2024-01-19T10:02:33.469Z,43.79
2024-01-19T10:03:33.500Z,44.25
2024-01-19T10:04:33.519Z,44.28
2024-01-19T10:05:33.521Z,43.91
2024-01-19T10:06:33.529Z,43.91
2024-01-19T10:07:33.440Z,44.17
2024-01-19T10:08:33.481Z,43.98
2024-01-19T10:09:33.485Z,44.02
2024-01-19T10:10:33.954Z,44.14
2024-01-19T10:12:33.443Z,44.24
2024-01-19T10:13:33.461Z,44.18
2024-01-19T10:14:33.475Z,44.31
2024-01-19T10:15:33.468Z,44.30
2024-01-19T10:16:33.475Z,44.50
2024-01-19T10:17:33.581Z,44.42
2024-01-19T10:18:33.653Z,44.33
2024-01-19T10:19:33.438Z,44.33
2024-01-19T10:20:33.460Z,44.32
2024-01-19T10:21:33.466Z,44.49
2024-01-19T10:22:33.469Z,44.41
2024-01-19T10:23:33.531Z,44.55
2024-01-19T10:24:33.478Z,44.52
2024-01-19T10:25:33.490Z,44.61
2024-01-19T10:26:33.499Z,44.79
2024-01-19T10:27:33.452Z,45.10
2024-01-19T10:28:33.474Z,44.93
2024-01-19T10:29:33.506Z,44.81
2024-01-19T10:30:33.504Z,44.87
2024-01-19T10:31:33.501Z,44.94
2024-01-19T10:32:33.536Z,44.89
2024-01-19T10:33:33.559Z,44.76
2024-01-19T10:34:33.518Z,44.99
2024-01-19T10:35:34.060Z,44.93
2024-01-19T10:36:33.523Z,45.15
2024-01-19T10:37:33.503Z,44.99
2024-01-19T10:38:33.532Z,46.03
2024-01-19T10:39:33.498Z,45.82
2024-01-19T10:40:33.489Z,45.27
2024-01-19T10:41:33.518Z,44.77
2024-01-19T10:42:33.496Z,44.80
2024-01-19T10:43:33.490Z,44.59
2024-01-19T10:44:33.555Z,44.61
2024-01-19T10:45:33.517Z,44.70
2024-01-19T10:46:33.508Z,44.60
2024-01-19T10:47:33.579Z,44.95
2024-01-19T10:48:33.645Z,43.94
2024-01-19T10:49:33.580Z,44.18
2024-01-19T10:50:33.738Z,44.26
2024-01-19T10:51:33.519Z,44.52
2024-01-19T10:52:33.518Z,44.37
2024-01-19T10:53:33.543Z,44.31
2024-01-19T10:54:33.555Z,44.36
2024-01-19T10:55:33.529Z,44.38
2024-01-19T10:56:33.608Z,44.49
2024-01-19T10:57:33.576Z,44.47
2024-01-19T10:58:33.520Z,44.48
2024-01-19T10:59:33.635Z,44.67
2024-01-19T11:00:33.558Z,44.58
2024-01-19T11:01:33.650Z,44.59
2024-01-19T11:02:33.631Z,44.98
2024-01-19T11:03:33.669Z,44.67
2024-01-19T11:04:33.652Z,44.67
2024-01-19T11:05:33.842Z,44.67
2024-01-19T11:06:33.747Z,44.52
2024-01-19T11:07:33.737Z,44.64
2024-01-19T11:08:33.746Z,44.73
2024-01-19T11:09:33.730Z,44.74
2024-01-19T11:10:34.034Z,44.86
2024-01-19T11:11:33.783Z,44.93
2024-01-19T11:12:33.766Z,45.02
2024-01-19T11:13:33.766Z,44.99
2024-01-19T11:14:33.764Z,45.13
2024-01-19T11:15:33.806Z,45.21
2024-01-19T11:16:34.463Z,45.23
2024-01-19T11:17:33.784Z,45.31
2024-01-19T11:18:33.853Z,45.21
2024-01-19T11:19:33.906Z,45.07
2024-01-19T11:20:33.804Z,44.95
2024-01-19T11:21:33.819Z,45.19
2024-01-19T11:22:33.815Z,45.19
2024-01-19T11:23:33.853Z,45.17
2024-01-19T11:24:33.841Z,45.08
2024-01-19T11:25:33.855Z,45.13
2024-01-19T11:26:33.885Z,45.13
2024-01-19T11:27:33.834Z,45.17
2024-01-19T11:28:33.839Z,45.42
2024-01-19T11:29:33.960Z,45.67
2024-01-19T11:30:33.860Z,45.40
2024-01-19T11:31:33.924Z,45.58
2024-01-19T11:32:33.986Z,45.35
2024-01-19T11:33:34.263Z,45.25
2024-01-19T11:34:33.878Z,45.29
2024-01-19T11:35:33.928Z,45.52
2024-01-19T11:36:33.917Z,45.59
2024-01-19T11:37:33.911Z,45.30
2024-01-19T11:38:34.009Z,45.33
2024-01-19T11:39:35.309Z,45.45
2024-01-19T11:40:33.956Z,45.48
2024-01-19T11:41:34.044Z,45.29
2024-01-19T11:42:33.993Z,44.98
2024-01-19T11:43:34.024Z,44.70
2024-01-19T11:44:34.052Z,43.68
2024-01-19T11:45:34.048Z,42.95
2024-01-19T11:46:34.076Z,40.94
2024-01-19T11:47:34.264Z,39.70
2024-01-19T11:48:34.361Z,38.62
2024-01-19T11:49:34.336Z,38.11
2024-01-19T11:50:34.337Z,38.13
2024-01-19T11:51:34.395Z,38.01
2024-01-19T11:52:34.489Z,38.10
2024-01-19T11:53:34.524Z,38.68
2024-01-19T11:54:34.651Z,38.36
2024-01-19T11:55:34.660Z,39.20
2024-01-19T11:56:34.729Z,39.95
2024-01-19T11:57:34.786Z,40.72
2024-01-19T11:58:34.837Z,40.85
2024-01-19T11:59:34.995Z,40.79
2024-01-19T12:00:34.972Z,41.01
2024-01-19T12:01:35.094Z,41.07
2024-01-19T12:02:35.313Z,41.11
2024-01-19T12:03:35.219Z,41.20
2024-01-19T12:04:35.265Z,41.19
2024-01-19T12:05:35.389Z,41.31
2024-01-19T12:06:35.533Z,41.40
2024-01-19T12:07:35.509Z,41.41
2024-01-19T12:08:35.608Z,41.47
2024-01-19T12:09:35.613Z,41.60
2024-01-19T12:10:35.644Z,41.62
2024-01-19T12:11:35.798Z,41.65
2024-01-19T12:12:35.812Z,41.69
2024-01-19T12:13:35.887Z,41.73
2024-01-19T12:14:35.980Z,41.67
2024-01-19T12:15:36.042Z,41.80
2024-01-19T12:16:36.066Z,41.89
2024-01-19T12:17:36.208Z,41.89
2024-01-19T12:18:36.261Z,41.88
2024-01-19T12:19:36.268Z,41.90
2024-01-19T12:20:36.344Z,41.90
2024-01-19T12:21:36.398Z,41.80
2024-01-19T12:22:36.523Z,41.82
2024-01-19T12:23:36.530Z,41.91
2024-01-19T12:24:36.636Z,41.94
2024-01-19T12:25:36.694Z,41.97
2024-01-19T12:26:36.740Z,41.98
2024-01-19T12:27:36.816Z,42.02
2024-01-19T12:28:36.911Z,42.03
2024-01-19T12:29:36.952Z,42.07
2024-01-19T12:30:37.108Z,42.10
2024-01-19T12:31:37.218Z,42.13
2024-01-19T12:32:37.177Z,41.89
2024-01-19T12:33:37.239Z,42.03
2024-01-19T12:34:37.345Z,41.73
2024-01-19T12:35:37.361Z,41.87
2024-01-19T12:36:37.405Z,41.94
2024-01-19T12:37:37.511Z,41.92
2024-01-19T12:38:37.509Z,41.85
2024-01-19T12:39:37.554Z,41.83
2024-01-19T12:40:37.672Z,41.83
2024-01-19T12:41:37.696Z,41.80
2024-01-19T12:42:37.782Z,41.81
2024-01-19T12:43:37.910Z,41.82
2024-01-19T12:44:37.929Z,41.81
2024-01-19T12:45:37.919Z,41.81
2024-01-19T12:46:37.955Z,41.78
2024-01-19T12:47:37.956Z,41.73
2024-01-19T12:48:38.073Z,41.68
2024-01-19T12:49:45.850Z,41.68
2024-01-19T12:50:39.054Z,41.71
2024-01-19T12:51:38.006Z,41.67
2024-01-19T12:52:37.999Z,41.68
2024-01-19T12:53:37.954Z,41.61
2024-01-19T12:54:37.971Z,41.64